createdAt,value
2023-04-10T00:00:55.633Z,6.30
2023-04-10T00:03:22.635Z,6.38
2023-04-10T00:05:49.504Z,6.22
2023-04-10T00:08:16.190Z,6.50
2023-04-10T00:10:42.906Z,6.32
2023-04-10T00:13:09.773Z,6.20
2023-04-10T00:15:37.960Z,6.78
2023-04-10T00:18:04.944Z,6.15
2023-04-10T00:20:31.723Z,6.75
2023-04-10T00:22:58.464Z,6.18
2023-04-10T00:25:25.279Z,6.05
2023-04-10T00:27:52.475Z,6.35
2023-04-10T00:30:19.647Z,6.07
2023-04-10T00:32:47.791Z,6.70
2023-04-10T00:35:14.663Z,7.28
2023-04-10T00:37:41.360Z,6.47
2023-04-10T00:40:09.099Z,6.18
2023-04-10T00:42:35.873Z,6.28
2023-04-10T00:45:02.666Z,6.00
2023-04-10T00:47:29.723Z,6.90
2023-04-10T00:49:57.840Z,6.45
2023-04-10T00:52:25.592Z,6.10
2023-04-10T00:54:52.386Z,5.88
2023-04-10T00:57:19.183Z,6.75
2023-04-10T00:59:45.972Z,6.22
2023-04-10T01:02:12.819Z,5.75
2023-04-10T01:04:40.133Z,5.38
2023-04-10T01:07:19.963Z,6.60
2023-04-10T01:09:51.424Z,6.53
2023-04-10T01:12:33.820Z,5.88
2023-04-10T01:15:06.048Z,5.38
2023-04-10T01:17:38.055Z,6.35
2023-04-10T01:20:09.398Z,6.90
2023-04-10T01:22:49.241Z,6.68
2023-04-10T01:25:38.839Z,6.10
2023-04-10T01:28:24.498Z,4.95
2023-04-10T01:31:14.063Z,6.20
2023-04-10T01:33:46.992Z,4.90
2023-04-10T01:36:21.035Z,5.22
2023-04-10T01:41:15.989Z,5.18
2023-04-10T01:43:43.125Z,5.32
2023-04-10T01:46:13.108Z,5.78
2023-04-10T01:48:40.776Z,5.70
2023-04-10T01:51:09.289Z,5.78
2023-04-10T01:53:36.628Z,5.72
2023-04-10T01:56:03.612Z,5.28
2023-04-10T01:58:30.661Z,5.57
2023-04-10T02:00:57.401Z,5.57
2023-04-10T02:03:25.658Z,5.07
2023-04-10T02:06:06.818Z,5.20
2023-04-10T02:08:37.682Z,5.32
2023-04-10T02:11:11.722Z,5.47
2023-04-10T02:16:08.168Z,5.70
2023-04-10T02:18:37.710Z,5.50
2023-04-10T02:21:05.269Z,5.20
2023-04-10T02:23:31.967Z,5.40
2023-04-10T02:25:58.707Z,5.35
2023-04-10T02:28:25.429Z,5.32
2023-04-10T02:30:52.169Z,5.65
2023-04-10T02:33:18.863Z,5.13
2023-04-10T02:35:46.982Z,6.20
2023-04-10T02:38:15.574Z,6.18
2023-04-10T02:40:43.580Z,5.93
2023-04-10T02:43:10.263Z,6.22
2023-04-10T02:45:37.155Z,5.95
2023-04-10T02:48:05.538Z,6.78
2023-04-10T02:50:32.374Z,5.97
2023-04-10T02:53:00.465Z,5.70
2023-04-10T02:55:27.283Z,5.78
2023-04-10T02:57:53.979Z,6.15
2023-04-10T03:00:20.762Z,6.45
2023-04-10T03:02:47.673Z,6.05
2023-04-10T03:05:14.553Z,7.00
2023-04-10T03:07:41.250Z,5.85
2023-04-10T03:10:10.143Z,5.15
2023-04-10T03:12:36.859Z,5.65
2023-04-10T03:15:04.260Z,6.03
2023-04-10T03:17:30.988Z,5.53
2023-04-10T03:19:57.869Z,5.47
2023-04-10T03:22:24.730Z,5.63
2023-04-10T03:24:51.552Z,5.68
2023-04-10T03:27:19.608Z,5.65
2023-04-10T03:29:46.301Z,6.97
2023-04-10T03:32:13.012Z,5.05
2023-04-10T03:34:39.721Z,5.82
2023-04-10T03:37:06.444Z,6.57
2023-04-10T03:39:33.152Z,5.20
2023-04-10T03:41:59.839Z,6.30
2023-04-10T03:44:27.854Z,5.70
2023-04-10T03:46:54.667Z,5.22
2023-04-10T03:49:21.369Z,6.13
2023-04-10T03:51:48.086Z,5.20
2023-04-10T03:54:14.811Z,5.53
2023-04-10T03:56:41.482Z,5.53
2023-04-10T03:59:08.308Z,5.78
2023-04-10T04:01:36.453Z,6.72
2023-04-10T04:04:03.281Z,5.80
2023-04-10T04:06:30.197Z,5.18
2023-04-10T04:08:56.932Z,5.03
2023-04-10T04:11:23.673Z,5.60
2023-04-10T04:13:50.356Z,5.50
2023-04-10T04:16:17.146Z,5.40
2023-04-10T04:18:45.451Z,6.18
2023-04-10T04:21:12.177Z,5.78
2023-04-10T04:23:38.885Z,5.88
2023-04-10T04:26:05.941Z,5.68
2023-04-10T04:28:32.661Z,5.88
2023-04-10T04:30:59.415Z,6.20
2023-04-10T04:33:26.120Z,5.47
2023-04-10T04:35:54.207Z,6.05
2023-04-10T04:38:20.926Z,5.65
2023-04-10T04:40:47.646Z,5.18
2023-04-10T04:43:14.367Z,5.28
2023-04-10T04:45:41.084Z,6.10
2023-04-10T04:48:07.816Z,6.13
2023-04-10T04:50:34.726Z,6.25
2023-04-10T04:53:02.854Z,6.20
2023-04-10T04:55:29.582Z,5.63
2023-04-10T04:57:56.288Z,6.43
2023-04-10T05:00:23.100Z,5.32
2023-04-10T05:02:50.138Z,5.38
2023-04-10T05:05:17.166Z,5.05
2023-04-10T05:07:43.909Z,5.20
2023-04-10T05:10:11.977Z,6.03
2023-04-10T05:12:38.837Z,6.15
2023-04-10T05:15:06.891Z,5.43
2023-04-10T05:17:33.659Z,5.47
2023-04-10T05:20:00.436Z,6.40
2023-04-10T05:22:27.156Z,7.78
2023-04-10T05:24:54.155Z,6.97
2023-04-10T05:27:22.285Z,7.05
2023-04-10T05:29:49.011Z,7.57
2023-04-10T05:32:15.718Z,7.22
2023-04-10T05:34:42.611Z,7.70
2023-04-10T05:37:09.374Z,7.25
2023-04-10T05:39:36.099Z,6.85
2023-04-10T05:42:02.875Z,7.45
2023-04-10T05:44:31.201Z,6.72
2023-04-10T05:46:58.085Z,6.22
2023-04-10T05:49:24.806Z,6.28
2023-04-10T05:51:51.531Z,7.22
2023-04-10T05:54:18.270Z,5.82
2023-04-10T05:56:45.003Z,7.10
2023-04-10T05:59:11.710Z,6.30
2023-04-10T06:01:39.984Z,6.68
2023-04-10T06:04:06.909Z,6.13
2023-04-10T06:06:34.122Z,8.18
2023-04-10T06:09:00.964Z,7.38
2023-04-10T06:11:27.704Z,7.25
2023-04-10T06:13:54.506Z,7.28
2023-04-10T06:16:21.277Z,6.65
2023-04-10T06:18:49.433Z,8.25
2023-04-10T06:21:16.119Z,7.97
2023-04-10T06:23:42.824Z,7.65
2023-04-10T06:26:09.667Z,8.98
2023-04-10T06:28:37.042Z,9.60
2023-04-10T06:31:06.136Z,8.77
2023-04-10T06:33:32.921Z,9.55
2023-04-10T06:36:01.110Z,9.80
2023-04-10T06:38:27.974Z,9.68
2023-04-10T06:40:54.726Z,9.18
2023-04-10T06:43:21.435Z,8.13
2023-04-10T06:45:48.182Z,8.35
2023-04-10T06:48:15.515Z,8.63
2023-04-10T06:50:42.325Z,7.82
2023-04-10T06:53:10.357Z,8.23
2023-04-10T06:55:37.036Z,7.68
2023-04-10T06:58:03.774Z,8.13
2023-04-10T07:00:30.684Z,7.30
2023-04-10T07:02:57.550Z,7.00
2023-04-10T07:05:24.424Z,8.40
2023-04-10T07:07:51.186Z,8.15
2023-04-10T07:10:20.166Z,7.82
2023-04-10T07:12:46.954Z,8.50
2023-04-10T07:15:13.795Z,8.18
2023-04-10T07:17:40.625Z,7.10
2023-04-10T07:20:08.285Z,7.50
2023-04-10T07:22:35.013Z,9.23
2023-04-10T07:25:02.055Z,8.23
2023-04-10T07:27:30.150Z,8.13
2023-04-10T07:29:56.860Z,7.95
2023-04-10T07:32:24.398Z,8.70
2023-04-10T07:34:51.243Z,7.82
2023-04-10T07:37:17.964Z,8.88
2023-04-10T07:39:44.919Z,8.10
2023-04-10T07:42:11.765Z,7.80
2023-04-10T07:44:39.835Z,7.45
2023-04-10T07:47:06.684Z,8.13
2023-04-10T07:49:33.416Z,8.20
2023-04-10T07:52:00.173Z,8.95
2023-04-10T07:54:26.904Z,8.88
2023-04-10T07:56:53.622Z,9.27
2023-04-10T07:59:20.329Z,9.55
2023-04-10T08:01:48.404Z,9.57
2023-04-10T08:04:15.323Z,9.57
2023-04-10T08:06:42.211Z,9.32
2023-04-10T08:09:09.088Z,9.07
2023-04-10T08:11:38.273Z,8.20
2023-04-10T08:14:05.462Z,7.90
2023-04-10T08:16:33.706Z,8.85
2023-04-10T08:19:02.473Z,7.00
2023-04-10T08:21:30.542Z,8.18
2023-04-10T08:23:58.548Z,6.95
2023-04-10T08:26:26.437Z,7.70
2023-04-10T08:28:55.255Z,8.45
2023-04-10T08:31:24.199Z,7.13
2023-04-10T08:33:51.408Z,8.82
2023-04-10T08:36:20.499Z,6.70
2023-04-10T08:38:48.297Z,8.85
2023-04-10T08:41:16.706Z,7.90
2023-04-10T08:43:43.570Z,7.25
2023-04-10T08:46:10.332Z,7.32
2023-04-10T08:48:39.526Z,7.40
2023-04-10T08:51:12.803Z,7.40
2023-04-10T08:53:44.484Z,5.82
2023-04-10T08:56:13.167Z,7.20
2023-04-10T08:58:40.511Z,6.25
2023-04-10T09:01:08.939Z,7.30
2023-04-10T09:07:04.059Z,7.00
2023-04-10T09:09:32.087Z,6.72
2023-04-10T09:12:00.377Z,6.70
2023-04-10T09:14:28.779Z,5.85
2023-04-10T09:17:16.488Z,6.28
2023-04-10T09:19:44.692Z,5.22
2023-04-10T09:22:12.350Z,5.38
2023-04-10T09:24:52.310Z,5.50
2023-04-10T09:27:42.857Z,5.60
2023-04-10T09:30:09.971Z,6.57
2023-04-10T09:32:38.999Z,6.55
2023-04-10T09:35:06.808Z,6.70
2023-04-10T09:37:34.254Z,7.03
2023-04-10T09:40:02.954Z,6.28
2023-04-10T09:42:31.804Z,6.32
2023-04-10T09:44:59.275Z,5.88
2023-04-10T09:47:26.028Z,6.43
2023-04-10T09:49:54.412Z,6.03
2023-04-10T09:52:22.851Z,6.97
2023-04-10T09:54:49.569Z,6.13
2023-04-10T09:57:19.840Z,6.22
2023-04-10T09:59:50.428Z,5.72
2023-04-10T10:02:18.009Z,6.38
2023-04-10T10:04:46.396Z,5.78
2023-04-10T10:07:14.844Z,5.85
2023-04-10T10:09:42.455Z,5.20
2023-04-10T10:12:11.174Z,6.18
2023-04-10T10:14:44.789Z,5.80
2023-04-10T10:17:11.935Z,6.22
2023-04-10T10:19:43.790Z,6.30
2023-04-10T10:22:11.127Z,5.78
2023-04-10T10:24:39.967Z,6.70
2023-04-10T10:27:09.676Z,7.28
2023-04-10T10:29:39.431Z,7.05
2023-04-10T10:32:08.094Z,6.00
2023-04-10T10:34:35.751Z,6.05
2023-04-10T10:37:04.102Z,5.35
2023-04-10T10:39:42.261Z,5.88
2023-04-10T10:42:13.543Z,6.07
2023-04-10T10:44:48.814Z,5.90
2023-04-10T10:47:19.530Z,5.47
2023-04-10T10:49:53.346Z,6.10
2023-04-10T10:52:42.056Z,6.00
2023-04-10T10:55:31.785Z,6.78
2023-04-10T10:58:00.015Z,6.18
2023-04-10T11:01:04.372Z,5.55
2023-04-10T11:03:31.217Z,5.78
2023-04-10T11:05:59.343Z,5.18
2023-04-10T11:08:46.401Z,7.03
2023-04-10T11:11:18.273Z,5.93
2023-04-10T11:14:16.065Z,4.95
2023-04-10T11:16:46.456Z,5.32
2023-04-10T11:19:15.890Z,5.72
2023-04-10T11:22:05.772Z,5.60
2023-04-10T11:24:52.116Z,5.97
2023-04-10T11:27:37.972Z,3.92
2023-04-10T11:30:24.988Z,5.95
2023-04-10T11:32:53.916Z,6.00
2023-04-10T11:35:21.092Z,5.10
2023-04-10T11:37:48.007Z,5.47
2023-04-10T11:40:14.844Z,5.50
2023-04-10T11:42:41.579Z,5.30
2023-04-10T11:45:26.122Z,5.72
2023-04-10T11:47:54.749Z,4.78
2023-04-10T11:50:21.700Z,5.13
2023-04-10T11:52:49.711Z,4.53
2023-04-10T11:55:16.627Z,4.65
2023-04-10T11:57:44.070Z,4.60
2023-04-10T12:00:11.854Z,6.70
2023-04-10T12:02:51.416Z,5.68
2023-04-10T12:05:19.901Z,5.03
2023-04-10T12:07:48.298Z,5.70
2023-04-10T12:10:15.046Z,5.28
2023-04-10T12:12:41.730Z,5.35
2023-04-10T12:15:26.700Z,4.28
2023-04-10T12:17:53.569Z,4.45
2023-04-10T12:20:22.244Z,5.00
2023-04-10T12:22:49.003Z,4.30
2023-04-10T12:25:15.952Z,5.35
2023-04-10T12:27:48.945Z,5.30
2023-04-10T12:30:15.729Z,5.60
2023-04-10T12:32:51.530Z,5.03
2023-04-10T12:35:18.310Z,5.05
2023-04-10T12:37:50.111Z,5.30
2023-04-10T12:40:17.270Z,5.93
2023-04-10T12:42:44.160Z,5.00
2023-04-10T12:45:11.192Z,4.70
2023-04-10T12:47:44.396Z,5.43
2023-04-10T12:50:13.212Z,5.07
2023-04-10T12:52:41.569Z,5.72
2023-04-10T12:55:12.105Z,5.38
2023-04-10T12:57:40.016Z,5.80
2023-04-10T13:00:08.233Z,4.90
2023-04-10T13:02:35.349Z,5.28
2023-04-10T13:05:02.312Z,4.90
2023-04-10T13:07:29.022Z,5.45
2023-04-10T13:09:57.304Z,4.18
2023-04-10T13:12:25.455Z,4.47
2023-04-10T13:14:52.175Z,4.15
2023-04-10T13:17:18.854Z,3.75
2023-04-10T13:19:45.564Z,3.75
2023-04-10T13:22:12.253Z,4.03
2023-04-10T13:24:38.977Z,3.70
2023-04-10T13:27:05.807Z,3.10
2023-04-10T13:29:33.871Z,3.30
2023-04-10T13:32:00.666Z,3.78
2023-04-10T13:34:27.420Z,3.28
2023-04-10T13:36:54.172Z,3.80
2023-04-10T13:39:20.951Z,2.80
2023-04-10T13:41:47.673Z,3.53
2023-04-10T13:44:14.464Z,2.97
2023-04-10T13:46:42.623Z,3.17
2023-04-10T13:49:09.333Z,3.58
2023-04-10T13:51:36.082Z,3.30
2023-04-10T13:54:03.417Z,4.10
2023-04-10T13:56:30.242Z,3.42
2023-04-10T13:58:57.257Z,3.00
2023-04-10T14:01:24.338Z,3.20
2023-04-10T14:03:52.545Z,3.33
2023-04-10T14:06:19.464Z,3.25
2023-04-10T14:08:46.156Z,2.97
2023-04-10T14:11:12.851Z,3.25
2023-04-10T14:13:39.564Z,3.00
2023-04-10T14:16:07.100Z,3.15
2023-04-10T14:18:33.989Z,2.63
2023-04-10T14:21:02.060Z,3.03
2023-04-10T14:23:28.784Z,2.30
2023-04-10T14:25:55.507Z,3.03
2023-04-10T14:28:22.300Z,3.00
2023-04-10T14:30:50.662Z,3.15
2023-04-10T14:33:20.095Z,3.78
2023-04-10T14:35:47.740Z,2.97
2023-04-10T14:38:16.013Z,2.95
2023-04-10T14:40:42.863Z,2.45
2023-04-10T14:43:09.591Z,2.42
2023-04-10T14:45:36.321Z,2.67
2023-04-10T14:48:03.300Z,2.75
2023-04-10T14:50:31.758Z,2.53
2023-04-10T14:52:58.698Z,2.58
2023-04-10T14:55:28.365Z,2.22
2023-04-10T14:57:57.261Z,2.33
2023-04-10T15:00:25.359Z,2.15
2023-04-10T15:02:52.414Z,2.53
2023-04-10T15:05:19.531Z,2.80
2023-04-10T15:07:46.280Z,2.85
2023-04-10T15:10:13.053Z,2.25
2023-04-10T15:12:41.124Z,2.28
2023-04-10T15:15:08.827Z,2.42
2023-04-10T15:17:35.581Z,2.47
2023-04-10T15:20:02.471Z,2.50
2023-04-10T15:22:29.222Z,2.35
2023-04-10T15:24:56.047Z,2.40
2023-04-10T15:27:22.811Z,2.78
2023-04-10T15:29:50.889Z,2.55
2023-04-10T15:32:17.742Z,2.35
2023-04-10T15:34:44.766Z,2.78
2023-04-10T15:37:11.562Z,2.17
2023-04-10T15:39:38.323Z,2.65
2023-04-10T15:42:06.156Z,2.72
2023-04-10T15:44:32.961Z,2.38
2023-04-10T15:47:01.050Z,2.13
2023-04-10T15:49:37.196Z,3.35
2023-04-10T15:52:05.791Z,2.60
2023-04-10T15:54:33.245Z,2.45
2023-04-10T15:56:59.979Z,2.92
2023-04-10T15:59:26.734Z,2.30
2023-04-10T16:01:53.566Z,2.58
2023-04-10T16:04:21.922Z,2.03
2023-04-10T16:06:48.767Z,2.15
2023-04-10T16:09:25.387Z,2.33
2023-04-10T16:11:53.544Z,2.10
2023-04-10T16:14:20.286Z,2.33
2023-04-10T16:16:47.001Z,2.40
2023-04-10T16:19:13.745Z,2.63
2023-04-10T16:21:41.802Z,2.08
2023-04-10T16:24:08.560Z,2.50
2023-04-10T16:26:35.309Z,2.50
2023-04-10T16:29:02.052Z,2.60
2023-04-10T16:31:28.847Z,2.35
2023-04-10T16:33:55.599Z,2.78
2023-04-10T16:36:22.314Z,2.42
2023-04-10T16:38:50.431Z,4.38
2023-04-10T16:41:17.296Z,2.65
2023-04-10T16:43:44.016Z,3.38
2023-04-10T16:46:10.811Z,2.55
2023-04-10T16:48:38.031Z,2.45
2023-04-10T16:51:05.348Z,2.03
2023-04-10T16:53:33.180Z,2.08
2023-04-10T16:56:04.436Z,2.35
2023-04-10T16:58:33.074Z,1.55
2023-04-10T17:00:59.918Z,2.17
2023-04-10T17:03:26.846Z,2.55
2023-04-10T17:05:53.757Z,2.85
2023-04-10T17:08:20.529Z,2.60
2023-04-10T17:10:47.228Z,2.95
2023-04-10T17:13:15.349Z,2.50
2023-04-10T17:15:42.070Z,2.47
2023-04-10T17:18:08.939Z,2.50
2023-04-10T17:20:35.981Z,4.13
2023-04-10T17:23:02.738Z,6.78
2023-04-10T17:25:29.485Z,2.85
2023-04-10T17:27:57.374Z,3.20
2023-04-10T17:30:25.666Z,2.42
2023-04-10T17:32:53.258Z,2.22
2023-04-10T17:35:20.035Z,2.53
2023-04-10T17:37:46.748Z,2.20
2023-04-10T17:40:13.679Z,2.50
2023-04-10T17:42:40.398Z,2.10
2023-04-10T17:45:07.924Z,2.00
2023-04-10T17:47:36.266Z,2.63
2023-04-10T17:50:03.431Z,2.80
2023-04-10T17:52:30.201Z,2.42
2023-04-10T17:54:56.930Z,2.65
2023-04-10T17:57:23.757Z,3.35
2023-04-10T17:59:50.486Z,3.05
2023-04-10T18:02:17.289Z,3.35
2023-04-10T18:04:45.386Z,3.03
2023-04-10T18:07:12.197Z,2.58
2023-04-10T18:09:38.962Z,3.25
2023-04-10T18:12:05.682Z,3.67
2023-04-10T18:14:32.433Z,2.95
2023-04-10T18:16:59.212Z,3.60
2023-04-10T18:19:26.063Z,3.47
2023-04-10T18:21:54.384Z,3.78
2023-04-10T18:24:21.152Z,3.30
2023-04-10T18:26:47.898Z,3.42
2023-04-10T18:29:14.637Z,3.30
2023-04-10T18:31:41.412Z,3.58
2023-04-10T18:34:08.767Z,4.15
2023-04-10T18:36:35.771Z,3.85
2023-04-10T18:39:04.252Z,3.63
2023-04-10T18:41:31.010Z,4.00
2023-04-10T18:44:05.050Z,3.20
2023-04-10T18:46:33.046Z,3.95
2023-04-10T18:49:00.136Z,3.78
2023-04-10T18:51:26.873Z,3.25
2023-04-10T18:53:53.809Z,3.60
2023-04-10T18:56:22.171Z,3.65
2023-04-10T18:58:50.136Z,3.40
2023-04-10T19:01:17.238Z,4.28
2023-04-10T19:03:44.268Z,4.80
2023-04-10T19:06:11.154Z,4.53
2023-04-10T19:08:38.197Z,3.67
2023-04-10T19:11:06.222Z,4.15
2023-04-10T19:13:34.352Z,3.88
2023-04-10T19:16:03.958Z,3.58
2023-04-10T19:18:30.784Z,9.43
2023-04-10T19:20:57.532Z,4.78
2023-04-10T19:23:26.499Z,4.00
2023-04-10T19:25:54.008Z,3.17
2023-04-10T19:28:23.708Z,3.67
2023-04-10T19:30:52.146Z,5.00
2023-04-10T19:33:19.148Z,4.32
2023-04-10T19:35:45.911Z,3.58
2023-04-10T19:38:12.750Z,3.08
2023-04-10T19:40:39.423Z,2.88
2023-04-10T19:43:06.225Z,2.72
2023-04-10T19:45:36.126Z,2.65
2023-04-10T19:48:04.280Z,2.92
2023-04-10T19:50:31.276Z,2.45
2023-04-10T19:52:58.208Z,3.30
2023-04-10T19:55:26.205Z,2.85
2023-04-10T19:57:53.024Z,3.15
2023-04-10T20:00:19.890Z,3.33
2023-04-10T20:02:47.017Z,2.90
2023-04-10T20:05:15.303Z,3.22
2023-04-10T20:07:42.031Z,3.10
2023-04-10T20:10:09.380Z,2.65
2023-04-10T20:12:36.309Z,3.08
2023-04-10T20:15:04.069Z,2.83
2023-04-10T20:17:31.181Z,2.95
2023-04-10T20:19:58.113Z,3.65
2023-04-10T20:22:26.208Z,3.30
2023-04-10T20:24:52.939Z,3.22
2023-04-10T20:27:19.792Z,3.35
2023-04-10T20:29:46.498Z,3.15
2023-04-10T20:32:13.217Z,3.45
2023-04-10T20:34:39.998Z,3.40
2023-04-10T20:37:06.736Z,3.22
2023-04-10T20:39:34.965Z,3.28
2023-04-10T20:42:01.673Z,3.13
2023-04-10T20:44:28.480Z,3.47
2023-04-10T20:46:55.217Z,3.97
2023-04-10T20:49:21.940Z,4.75
2023-04-10T20:51:48.626Z,4.25
2023-04-10T20:54:15.348Z,4.32
2023-04-10T20:56:44.146Z,4.00
2023-04-10T20:59:11.390Z,4.32
2023-04-10T21:01:38.533Z,4.55
2023-04-10T21:04:05.637Z,4.38
2023-04-10T21:06:32.541Z,3.95
2023-04-10T21:08:59.300Z,4.07
2023-04-10T21:11:26.377Z,3.75
2023-04-10T21:13:54.553Z,3.30
2023-04-10T21:16:21.425Z,4.10
2023-04-10T21:18:48.196Z,3.15
2023-04-10T21:21:14.985Z,3.38
2023-04-10T21:23:41.822Z,3.97
2023-04-10T21:26:08.545Z,3.58
2023-04-10T21:28:35.288Z,3.78
2023-04-10T21:31:03.497Z,3.63
2023-04-10T21:33:31.130Z,3.40
2023-04-10T21:35:57.935Z,3.85
2023-04-10T21:38:24.747Z,3.58
2023-04-10T21:40:52.106Z,3.38
2023-04-10T21:43:18.854Z,3.60
2023-04-10T21:45:45.704Z,3.88
2023-04-10T21:48:13.812Z,3.88
2023-04-10T21:50:41.622Z,4.00
2023-04-10T21:53:08.383Z,3.40
2023-04-10T21:55:35.092Z,3.67
2023-04-10T21:58:01.891Z,3.92
2023-04-10T22:00:28.739Z,3.97
2023-04-10T22:02:55.936Z,4.18
2023-04-10T22:05:24.507Z,4.22
2023-04-10T22:07:51.965Z,4.22
2023-04-10T22:10:19.045Z,4.22
2023-04-10T22:12:48.477Z,3.92
2023-04-10T22:15:15.696Z,3.38
2023-04-10T22:17:42.483Z,3.58
2023-04-10T22:20:10.318Z,3.65
2023-04-10T22:22:38.400Z,3.40
2023-04-10T22:25:05.860Z,3.33
2023-04-10T22:27:32.954Z,3.83
2023-04-10T22:30:03.969Z,3.35
2023-04-10T22:32:32.720Z,3.95
2023-04-10T22:34:59.875Z,3.53
2023-04-10T22:37:26.820Z,3.30
2023-04-10T22:39:54.893Z,4.35
2023-04-10T22:42:21.608Z,3.70
2023-04-10T22:44:48.305Z,4.07
2023-04-10T22:47:15.041Z,3.10
2023-04-10T22:49:41.737Z,3.50
2023-04-10T22:52:08.427Z,4.07
2023-04-10T22:54:35.144Z,3.53
2023-04-10T22:57:03.340Z,3.72
2023-04-10T22:59:30.044Z,4.07
2023-04-10T23:01:56.821Z,3.88
2023-04-10T23:04:23.702Z,3.58
2023-04-10T23:06:50.548Z,3.95
2023-04-10T23:09:17.261Z,4.05
2023-04-10T23:11:43.994Z,4.15
2023-04-10T23:14:12.205Z,4.25
2023-04-10T23:16:39.067Z,4.32
2023-04-10T23:19:05.811Z,4.05
2023-04-10T23:21:32.844Z,4.68
2023-04-10T23:23:59.593Z,4.60
2023-04-10T23:26:26.302Z,3.72
2023-04-10T23:28:53.147Z,4.80
2023-04-10T23:31:21.457Z,4.32
2023-04-10T23:33:48.300Z,4.07
2023-04-10T23:36:15.060Z,3.95
2023-04-10T23:38:42.167Z,3.80
2023-04-10T23:41:09.017Z,3.65
2023-04-10T23:43:35.737Z,4.00
2023-04-10T23:46:02.431Z,3.83
2023-04-10T23:48:30.491Z,4.00
2023-04-10T23:51:04.483Z,3.55
2023-04-10T23:53:31.177Z,3.83
2023-04-10T23:55:57.917Z,3.67
2023-04-10T23:59:14.140Z,4.68
